sensor_id;sensor_type;location;lat;lon;timestamp;pressure;altitude;pressure_sealevel;temperature;humidity
50310;BME280;36207;51.850;21.698;2023-10-31T00:01:07;98820.80;;;12.24;85.25
50310;BME280;36207;51.850;21.698;2023-10-31T00:03:33;98814.92;;;12.26;85.41
50310;BME280;36207;51.850;21.698;2023-10-31T00:06:00;98809.79;;;12.30;84.94
50310;BME280;36207;51.850;21.698;2023-10-31T00:08:25;98804.73;;;12.34;84.17
50310;BME280;36207;51.850;21.698;2023-10-31T00:10:51;98810.64;;;12.37;84.49
50310;BME280;36207;51.850;21.698;2023-10-31T00:13:18;98813.55;;;12.39;84.61
50310;BME280;36207;51.850;21.698;2023-10-31T00:15:43;98805.12;;;12.38;84.11
50310;BME280;36207;51.850;21.698;2023-10-31T00:18:09;98804.99;;;12.37;84.36
50310;BME280;36207;51.850;21.698;2023-10-31T00:20:35;98800.70;;;12.36;84.35
50310;BME280;36207;51.850;21.698;2023-10-31T00:23:01;98800.88;;;12.32;84.55
50310;BME280;36207;51.850;21.698;2023-10-31T00:25:27;98793.30;;;12.28;84.36
50310;BME280;36207;51.850;21.698;2023-10-31T00:27:53;98785.38;;;12.25;85.11
50310;BME280;36207;51.850;21.698;2023-10-31T00:30:19;98778.14;;;12.23;85.08
50310;BME280;36207;51.850;21.698;2023-10-31T00:32:45;98768.29;;;12.24;84.68
50310;BME280;36207;51.850;21.698;2023-10-31T00:35:11;98768.15;;;12.25;85.00
50310;BME280;36207;51.850;21.698;2023-10-31T00:37:38;98765.55;;;12.26;84.61
50310;BME280;36207;51.850;21.698;2023-10-31T00:40:08;98757.05;;;12.28;84.89
50310;BME280;36207;51.850;21.698;2023-10-31T00:42:37;98751.38;;;12.29;85.53
50310;BME280;36207;51.850;21.698;2023-10-31T00:45:04;98755.45;;;12.28;85.43
50310;BME280;36207;51.850;21.698;2023-10-31T00:47:30;98751.89;;;12.27;85.25
50310;BME280;36207;51.850;21.698;2023-10-31T00:49:56;98761.80;;;12.27;85.15
50310;BME280;36207;51.850;21.698;2023-10-31T00:52:21;98771.67;;;12.32;84.95
50310;BME280;36207;51.850;21.698;2023-10-31T00:54:47;98773.35;;;12.34;85.16
50310;BME280;36207;51.850;21.698;2023-10-31T00:57:13;98768.45;;;12.35;84.76
50310;BME280;36207;51.850;21.698;2023-10-31T00:59:39;98767.27;;;12.33;85.35
50310;BME280;36207;51.850;21.698;2023-10-31T01:02:05;98753.05;;;12.30;85.09
50310;BME280;36207;51.850;21.698;2023-10-31T01:04:31;98747.69;;;12.30;84.86
50310;BME280;36207;51.850;21.698;2023-10-31T01:06:57;98742.56;;;12.32;84.72
50310;BME280;36207;51.850;21.698;2023-10-31T01:09:23;98738.23;;;12.34;84.97
50310;BME280;36207;51.850;21.698;2023-10-31T01:11:49;98734.52;;;12.33;84.87
50310;BME280;36207;51.850;21.698;2023-10-31T01:14:15;98727.36;;;12.32;84.86
50310;BME280;36207;51.850;21.698;2023-10-31T01:16:41;98720.79;;;12.31;84.61
50310;BME280;36207;51.850;21.698;2023-10-31T01:19:07;98722.34;;;12.29;85.19
50310;BME280;36207;51.850;21.698;2023-10-31T01:21:33;98720.85;;;12.25;84.56
50310;BME280;36207;51.850;21.698;2023-10-31T01:23:59;98714.52;;;12.27;84.46
50310;BME280;36207;51.850;21.698;2023-10-31T01:26:25;98708.79;;;12.25;84.69
50310;BME280;36207;51.850;21.698;2023-10-31T01:28:52;98708.14;;;12.23;84.43
50310;BME280;36207;51.850;21.698;2023-10-31T01:31:18;98697.70;;;12.25;84.70
50310;BME280;36207;51.850;21.698;2023-10-31T01:33:45;98687.53;;;12.26;84.80
50310;BME280;36207;51.850;21.698;2023-10-31T01:36:11;98680.71;;;12.28;85.06
50310;BME280;36207;51.850;21.698;2023-10-31T01:38:38;98680.61;;;12.30;84.92
50310;BME280;36207;51.850;21.698;2023-10-31T01:41:04;98680.58;;;12.33;84.87
50310;BME280;36207;51.850;21.698;2023-10-31T01:43:37;98678.60;;;12.34;84.89
50310;BME280;36207;51.850;21.698;2023-10-31T01:46:04;98673.95;;;12.38;84.59
50310;BME280;36207;51.850;21.698;2023-10-31T01:48:32;98662.48;;;12.41;84.63
50310;BME280;36207;51.850;21.698;2023-10-31T01:50:59;98660.08;;;12.43;84.42
50310;BME280;36207;51.850;21.698;2023-10-31T01:53:27;98654.32;;;12.46;84.29
50310;BME280;36207;51.850;21.698;2023-10-31T01:55:55;98641.71;;;12.49;84.41
50310;BME280;36207;51.850;21.698;2023-10-31T01:58:25;98631.63;;;12.48;84.15
50310;BME280;36207;51.850;21.698;2023-10-31T02:00:55;98630.86;;;12.50;84.27
50310;BME280;36207;51.850;21.698;2023-10-31T02:03:21;98623.55;;;12.49;84.50
50310;BME280;36207;51.850;21.698;2023-10-31T02:05:47;98614.60;;;12.49;84.26
50310;BME280;36207;51.850;21.698;2023-10-31T02:08:13;98609.58;;;12.49;84.30
50310;BME280;36207;51.850;21.698;2023-10-31T02:10:39;98604.85;;;12.48;84.64
50310;BME280;36207;51.850;21.698;2023-10-31T02:13:13;98596.04;;;12.48;84.56
50310;BME280;36207;51.850;21.698;2023-10-31T02:15:40;98592.97;;;12.49;84.53
50310;BME280;36207;51.850;21.698;2023-10-31T02:18:07;98588.66;;;12.49;84.74
50310;BME280;36207;51.850;21.698;2023-10-31T02:20:33;98580.73;;;12.50;84.64
50310;BME280;36207;51.850;21.698;2023-10-31T02:23:00;98583.04;;;12.50;84.46
50310;BME280;36207;51.850;21.698;2023-10-31T02:25:26;98582.29;;;12.50;84.46
50310;BME280;36207;51.850;21.698;2023-10-31T02:27:52;98568.61;;;12.49;84.71
50310;BME280;36207;51.850;21.698;2023-10-31T02:30:18;98551.21;;;12.47;84.51
50310;BME280;36207;51.850;21.698;2023-10-31T02:32:44;98552.86;;;12.46;84.22
50310;BME280;36207;51.850;21.698;2023-10-31T02:35:10;98559.20;;;12.49;84.45
50310;BME280;36207;51.850;21.698;2023-10-31T02:37:36;98553.42;;;12.50;84.22
50310;BME280;36207;51.850;21.698;2023-10-31T02:40:02;98552.42;;;12.55;84.46
50310;BME280;36207;51.850;21.698;2023-10-31T02:42:28;98544.80;;;12.58;84.37
50310;BME280;36207;51.850;21.698;2023-10-31T02:44:54;98550.47;;;12.58;84.15
50310;BME280;36207;51.850;21.698;2023-10-31T02:47:20;98548.56;;;12.57;84.16
50310;BME280;36207;51.850;21.698;2023-10-31T02:49:46;98545.13;;;12.54;84.36
50310;BME280;36207;51.850;21.698;2023-10-31T02:52:12;98541.21;;;12.52;84.46
50310;BME280;36207;51.850;21.698;2023-10-31T02:54:38;98542.80;;;12.49;84.49
50310;BME280;36207;51.850;21.698;2023-10-31T02:57:04;98544.44;;;12.48;84.74
50310;BME280;36207;51.850;21.698;2023-10-31T02:59:30;98541.52;;;12.47;84.87
50310;BME280;36207;51.850;21.698;2023-10-31T03:01:57;98530.88;;;12.48;84.73
50310;BME280;36207;51.850;21.698;2023-10-31T03:04:23;98532.73;;;12.49;85.26
50310;BME280;36207;51.850;21.698;2023-10-31T03:06:49;98536.19;;;12.52;84.90
50310;BME280;36207;51.850;21.698;2023-10-31T03:09:15;98530.93;;;12.56;84.78
50310;BME280;36207;51.850;21.698;2023-10-31T03:11:42;98533.53;;;12.56;84.90
50310;BME280;36207;51.850;21.698;2023-10-31T03:14:07;98528.65;;;12.55;85.13
50310;BME280;36207;51.850;21.698;2023-10-31T03:16:33;98518.05;;;12.55;85.04
50310;BME280;36207;51.850;21.698;2023-10-31T03:19:00;98507.19;;;12.57;84.91
50310;BME280;36207;51.850;21.698;2023-10-31T03:21:26;98509.48;;;12.59;85.05
50310;BME280;36207;51.850;21.698;2023-10-31T03:23:52;98513.95;;;12.60;85.01
50310;BME280;36207;51.850;21.698;2023-10-31T03:26:21;98509.73;;;12.63;84.92
50310;BME280;36207;51.850;21.698;2023-10-31T03:28:48;98505.03;;;12.65;84.70
50310;BME280;36207;51.850;21.698;2023-10-31T03:31:14;98493.06;;;12.67;84.76
50310;BME280;36207;51.850;21.698;2023-10-31T03:33:41;98483.37;;;12.69;84.66
50310;BME280;36207;51.850;21.698;2023-10-31T03:36:10;98473.91;;;12.72;84.39
50310;BME280;36207;51.850;21.698;2023-10-31T03:38:36;98475.22;;;12.75;84.45
50310;BME280;36207;51.850;21.698;2023-10-31T03:41:03;98469.38;;;12.77;84.20
50310;BME280;36207;51.850;21.698;2023-10-31T03:43:29;98473.02;;;12.79;84.01
50310;BME280;36207;51.850;21.698;2023-10-31T03:45:55;98465.50;;;12.81;84.07
50310;BME280;36207;51.850;21.698;2023-10-31T03:48:21;98459.70;;;12.82;84.09
50310;BME280;36207;51.850;21.698;2023-10-31T03:50:47;98457.13;;;12.84;83.85
50310;BME280;36207;51.850;21.698;2023-10-31T03:53:13;98452.41;;;12.87;84.00
50310;BME280;36207;51.850;21.698;2023-10-31T03:55:39;98447.24;;;12.88;83.39
50310;BME280;36207;51.850;21.698;2023-10-31T03:58:05;98434.61;;;12.89;83.51
50310;BME280;36207;51.850;21.698;2023-10-31T04:00:31;98423.04;;;12.91;83.23
50310;BME280;36207;51.850;21.698;2023-10-31T04:02:57;98409.85;;;12.93;83.17
50310;BME280;36207;51.850;21.698;2023-10-31T04:05:23;98418.52;;;12.95;83.04
50310;BME280;36207;51.850;21.698;2023-10-31T04:07:50;98426.73;;;12.96;82.97
50310;BME280;36207;51.850;21.698;2023-10-31T04:10:18;98420.23;;;12.97;82.82
50310;BME280;36207;51.850;21.698;2023-10-31T04:12:45;98415.08;;;12.96;82.63
50310;BME280;36207;51.850;21.698;2023-10-31T04:15:11;98399.88;;;12.95;82.74
50310;BME280;36207;51.850;21.698;2023-10-31T04:17:38;98401.23;;;12.93;82.50
50310;BME280;36207;51.850;21.698;2023-10-31T04:20:04;98394.04;;;12.92;82.30
50310;BME280;36207;51.850;21.698;2023-10-31T04:22:30;98384.65;;;12.94;82.30
50310;BME280;36207;51.850;21.698;2023-10-31T04:24:56;98388.95;;;12.98;82.17
50310;BME280;36207;51.850;21.698;2023-10-31T04:27:22;98380.66;;;13.01;81.94
50310;BME280;36207;51.850;21.698;2023-10-31T04:29:48;98378.06;;;13.03;81.51
50310;BME280;36207;51.850;21.698;2023-10-31T04:32:14;98370.59;;;13.06;81.55
50310;BME280;36207;51.850;21.698;2023-10-31T04:34:40;98371.02;;;13.09;81.64
50310;BME280;36207;51.850;21.698;2023-10-31T04:37:07;98363.61;;;13.10;81.38
50310;BME280;36207;51.850;21.698;2023-10-31T04:39:32;98355.81;;;13.15;81.24
50310;BME280;36207;51.850;21.698;2023-10-31T04:41:58;98352.36;;;13.18;80.97
50310;BME280;36207;51.850;21.698;2023-10-31T04:44:24;98355.67;;;13.20;80.64
50310;BME280;36207;51.850;21.698;2023-10-31T04:46:50;98359.36;;;13.23;80.67
50310;BME280;36207;51.850;21.698;2023-10-31T04:49:16;98364.77;;;13.26;80.69
50310;BME280;36207;51.850;21.698;2023-10-31T04:51:42;98363.41;;;13.28;80.75
50310;BME280;36207;51.850;21.698;2023-10-31T04:54:09;98360.56;;;13.30;80.34
50310;BME280;36207;51.850;21.698;2023-10-31T04:56:35;98352.79;;;13.32;80.32
50310;BME280;36207;51.850;21.698;2023-10-31T04:59:02;98352.30;;;13.33;80.32
50310;BME280;36207;51.850;21.698;2023-10-31T05:01:28;98355.13;;;13.34;79.93
50310;BME280;36207;51.850;21.698;2023-10-31T05:03:54;98350.13;;;13.36;80.14
50310;BME280;36207;51.850;21.698;2023-10-31T05:06:21;98346.84;;;13.38;79.85
50310;BME280;36207;51.850;21.698;2023-10-31T05:08:47;98345.77;;;13.38;79.26
50310;BME280;36207;51.850;21.698;2023-10-31T05:11:14;98337.28;;;13.40;79.23
50310;BME280;36207;51.850;21.698;2023-10-31T05:13:42;98331.14;;;13.41;79.27
50310;BME280;36207;51.850;21.698;2023-10-31T05:16:07;98336.73;;;13.45;79.37
50310;BME280;36207;51.850;21.698;2023-10-31T05:18:36;98336.97;;;13.49;79.01
50310;BME280;36207;51.850;21.698;2023-10-31T05:21:03;98333.20;;;13.51;78.81
50310;BME280;36207;51.850;21.698;2023-10-31T05:23:29;98326.02;;;13.51;78.71
50310;BME280;36207;51.850;21.698;2023-10-31T05:25:55;98314.80;;;13.51;78.53
50310;BME280;36207;51.850;21.698;2023-10-31T05:28:21;98314.32;;;13.51;78.62
50310;BME280;36207;51.850;21.698;2023-10-31T05:30:47;98311.13;;;13.53;78.22
50310;BME280;36207;51.850;21.698;2023-10-31T05:33:15;98301.08;;;13.54;77.75
50310;BME280;36207;51.850;21.698;2023-10-31T05:35:41;98305.20;;;13.58;78.58
50310;BME280;36207;51.850;21.698;2023-10-31T05:38:08;98309.54;;;13.59;78.44
50310;BME280;36207;51.850;21.698;2023-10-31T05:40:34;98319.19;;;13.59;77.63
50310;BME280;36207;51.850;21.698;2023-10-31T05:43:03;98315.40;;;13.61;77.36
50310;BME280;36207;51.850;21.698;2023-10-31T05:45:30;98315.00;;;13.65;77.36
50310;BME280;36207;51.850;21.698;2023-10-31T05:47:56;98312.60;;;13.69;77.71
50310;BME280;36207;51.850;21.698;2023-10-31T05:50:22;98313.73;;;13.72;77.51
50310;BME280;36207;51.850;21.698;2023-10-31T05:52:48;98317.08;;;13.73;76.91
50310;BME280;36207;51.850;21.698;2023-10-31T05:55:14;98320.13;;;13.75;76.61
50310;BME280;36207;51.850;21.698;2023-10-31T05:57:41;98320.59;;;13.78;76.57
50310;BME280;36207;51.850;21.698;2023-10-31T06:00:08;98317.79;;;13.80;76.10
50310;BME280;36207;51.850;21.698;2023-10-31T06:02:34;98304.73;;;13.84;76.02
50310;BME280;36207;51.850;21.698;2023-10-31T06:05:00;98297.53;;;13.91;76.76
50310;BME280;36207;51.850;21.698;2023-10-31T06:07:26;98296.91;;;13.95;75.92
50310;BME280;36207;51.850;21.698;2023-10-31T06:09:52;98300.80;;;13.97;74.91
50310;BME280;36207;51.850;21.698;2023-10-31T06:12:18;98296.30;;;14.01;75.13
50310;BME280;36207;51.850;21.698;2023-10-31T06:14:44;98287.77;;;14.04;75.35
50310;BME280;36207;51.850;21.698;2023-10-31T06:17:10;98293.38;;;14.05;75.26
50310;BME280;36207;51.850;21.698;2023-10-31T06:19:36;98292.27;;;14.07;74.59
50310;BME280;36207;51.850;21.698;2023-10-31T06:22:03;98299.34;;;14.08;74.05
50310;BME280;36207;51.850;21.698;2023-10-31T06:24:29;98299.50;;;14.12;74.72
50310;BME280;36207;51.850;21.698;2023-10-31T06:26:55;98307.36;;;14.13;74.42
50310;BME280;36207;51.850;21.698;2023-10-31T06:29:22;98310.29;;;14.15;74.77
50310;BME280;36207;51.850;21.698;2023-10-31T06:31:48;98302.23;;;14.15;74.76
50310;BME280;36207;51.850;21.698;2023-10-31T06:34:14;98306.02;;;14.16;74.95
50310;BME280;36207;51.850;21.698;2023-10-31T06:36:39;98306.58;;;14.18;74.73
50310;BME280;36207;51.850;21.698;2023-10-31T06:39:05;98308.31;;;14.19;74.47
50310;BME280;36207;51.850;21.698;2023-10-31T06:41:32;98310.50;;;14.22;74.63
50310;BME280;36207;51.850;21.698;2023-10-31T06:43:58;98314.27;;;14.25;73.61
50310;BME280;36207;51.850;21.698;2023-10-31T06:46:24;98315.86;;;14.28;73.29
50310;BME280;36207;51.850;21.698;2023-10-31T06:48:50;98319.91;;;14.33;73.28
50310;BME280;36207;51.850;21.698;2023-10-31T06:51:16;98322.34;;;14.37;72.51
50310;BME280;36207;51.850;21.698;2023-10-31T06:53:42;98315.27;;;14.42;72.81
50310;BME280;36207;51.850;21.698;2023-10-31T06:56:08;98316.48;;;14.44;72.18
50310;BME280;36207;51.850;21.698;2023-10-31T06:58:34;98320.34;;;14.46;72.73
50310;BME280;36207;51.850;21.698;2023-10-31T07:01:00;98338.66;;;14.48;72.43
50310;BME280;36207;51.850;21.698;2023-10-31T07:03:26;98341.44;;;14.50;71.24
50310;BME280;36207;51.850;21.698;2023-10-31T07:05:52;98339.33;;;14.54;71.93
50310;BME280;36207;51.850;21.698;2023-10-31T07:08:18;98333.06;;;14.55;71.60
50310;BME280;36207;51.850;21.698;2023-10-31T07:10:44;98332.91;;;14.52;71.42
50310;BME280;36207;51.850;21.698;2023-10-31T07:13:11;98328.17;;;14.50;72.32
50310;BME280;36207;51.850;21.698;2023-10-31T07:15:37;98315.48;;;14.49;72.27
50310;BME280;36207;51.850;21.698;2023-10-31T07:18:05;98315.56;;;14.47;72.00
50310;BME280;36207;51.850;21.698;2023-10-31T07:20:33;98311.48;;;14.47;72.49
50310;BME280;36207;51.850;21.698;2023-10-31T07:22:59;98299.93;;;14.47;72.47
50310;BME280;36207;51.850;21.698;2023-10-31T07:25:25;98290.53;;;14.48;72.26
50310;BME280;36207;51.850;21.698;2023-10-31T07:27:51;98282.48;;;14.48;72.47
50310;BME280;36207;51.850;21.698;2023-10-31T07:30:17;98282.15;;;14.47;72.64
50310;BME280;36207;51.850;21.698;2023-10-31T07:32:43;98266.90;;;14.48;72.82
50310;BME280;36207;51.850;21.698;2023-10-31T07:35:09;98268.90;;;14.48;71.91
50310;BME280;36207;51.850;21.698;2023-10-31T07:37:35;98272.41;;;14.50;71.99
50310;BME280;36207;51.850;21.698;2023-10-31T07:40:01;98277.26;;;14.53;71.30
50310;BME280;36207;51.850;21.698;2023-10-31T07:42:29;98296.08;;;14.57;71.77
50310;BME280;36207;51.850;21.698;2023-10-31T07:44:55;98300.35;;;14.59;71.55
50310;BME280;36207;51.850;21.698;2023-10-31T07:47:21;98303.17;;;14.61;70.80
50310;BME280;36207;51.850;21.698;2023-10-31T07:49:47;98305.23;;;14.59;71.11
50310;BME280;36207;51.850;21.698;2023-10-31T07:52:14;98286.30;;;14.57;71.39
50310;BME280;36207;51.850;21.698;2023-10-31T07:54:40;98277.08;;;14.55;72.18
50310;BME280;36207;51.850;21.698;2023-10-31T07:57:07;98277.42;;;14.53;72.15
50310;BME280;36207;51.850;21.698;2023-10-31T07:59:33;98264.30;;;14.52;71.99
50310;BME280;36207;51.850;21.698;2023-10-31T08:02:00;98262.21;;;14.52;72.25
50310;BME280;36207;51.850;21.698;2023-10-31T08:04:26;98268.38;;;14.49;72.35
50310;BME280;36207;51.850;21.698;2023-10-31T08:06:53;98268.00;;;14.46;72.35
50310;BME280;36207;51.850;21.698;2023-10-31T08:09:19;98264.95;;;14.46;72.66
50310;BME280;36207;51.850;21.698;2023-10-31T08:11:45;98267.27;;;14.46;72.72
50310;BME280;36207;51.850;21.698;2023-10-31T08:14:11;98279.66;;;14.49;72.93
50310;BME280;36207;51.850;21.698;2023-10-31T08:16:37;98267.41;;;14.49;72.71
50310;BME280;36207;51.850;21.698;2023-10-31T08:19:03;98261.35;;;14.49;72.93
50310;BME280;36207;51.850;21.698;2023-10-31T08:21:29;98263.70;;;14.46;72.63
50310;BME280;36207;51.850;21.698;2023-10-31T08:24:01;98252.52;;;14.44;73.10
50310;BME280;36207;51.850;21.698;2023-10-31T08:26:29;98249.71;;;14.44;72.73
50310;BME280;36207;51.850;21.698;2023-10-31T08:28:55;98243.15;;;14.43;72.91
50310;BME280;36207;51.850;21.698;2023-10-31T08:31:22;98238.85;;;14.43;72.89
50310;BME280;36207;51.850;21.698;2023-10-31T08:33:47;98230.84;;;14.43;72.87
50310;BME280;36207;51.850;21.698;2023-10-31T08:36:13;98228.60;;;14.44;73.08
50310;BME280;36207;51.850;21.698;2023-10-31T08:38:40;98231.23;;;14.44;73.09
50310;BME280;36207;51.850;21.698;2023-10-31T08:41:05;98230.10;;;14.43;73.00
50310;BME280;36207;51.850;21.698;2023-10-31T08:43:32;98238.58;;;14.43;72.54
50310;BME280;36207;51.850;21.698;2023-10-31T08:45:58;98244.46;;;14.45;72.53
50310;BME280;36207;51.850;21.698;2023-10-31T08:48:24;98244.09;;;14.45;72.32
50310;BME280;36207;51.850;21.698;2023-10-31T08:50:50;98245.34;;;14.46;72.55
50310;BME280;36207;51.850;21.698;2023-10-31T08:53:16;98235.03;;;14.46;72.43
50310;BME280;36207;51.850;21.698;2023-10-31T08:55:44;98233.44;;;14.48;72.59
50310;BME280;36207;51.850;21.698;2023-10-31T08:58:11;98230.27;;;14.47;72.01
50310;BME280;36207;51.850;21.698;2023-10-31T09:00:38;98231.64;;;14.49;71.81
50310;BME280;36207;51.850;21.698;2023-10-31T09:03:07;98241.80;;;14.49;72.23
50310;BME280;36207;51.850;21.698;2023-10-31T09:05:33;98240.61;;;14.49;72.43
50310;BME280;36207;51.850;21.698;2023-10-31T09:08:00;98238.92;;;14.48;72.01
50310;BME280;36207;51.850;21.698;2023-10-31T09:10:26;98232.08;;;14.46;71.95
50310;BME280;36207;51.850;21.698;2023-10-31T09:12:52;98226.40;;;14.44;71.98
50310;BME280;36207;51.850;21.698;2023-10-31T09:15:18;98222.80;;;14.40;72.25
50310;BME280;36207;51.850;21.698;2023-10-31T09:17:47;98218.89;;;14.37;71.93
50310;BME280;36207;51.850;21.698;2023-10-31T09:20:13;98215.82;;;14.36;72.38
50310;BME280;36207;51.850;21.698;2023-10-31T09:22:39;98213.81;;;14.34;72.30
50310;BME280;36207;51.850;21.698;2023-10-31T09:25:05;98218.55;;;14.31;72.63
50310;BME280;36207;51.850;21.698;2023-10-31T09:27:32;98216.02;;;14.27;72.78
50310;BME280;36207;51.850;21.698;2023-10-31T09:29:58;98213.31;;;14.25;73.09
50310;BME280;36207;51.850;21.698;2023-10-31T09:32:25;98213.48;;;14.22;73.37
50310;BME280;36207;51.850;21.698;2023-10-31T09:34:51;98210.99;;;14.20;73.48
50310;BME280;36207;51.850;21.698;2023-10-31T09:37:17;98209.17;;;14.21;73.37
50310;BME280;36207;51.850;21.698;2023-10-31T09:39:43;98214.11;;;14.24;73.23
50310;BME280;36207;51.850;21.698;2023-10-31T09:42:09;98217.02;;;14.26;73.08
50310;BME280;36207;51.850;21.698;2023-10-31T09:44:36;98217.08;;;14.29;73.10
50310;BME280;36207;51.850;21.698;2023-10-31T09:47:02;98223.10;;;14.30;72.98
50310;BME280;36207;51.850;21.698;2023-10-31T09:49:28;98226.52;;;14.32;72.36
50310;BME280;36207;51.850;21.698;2023-10-31T09:51:54;98232.34;;;14.34;71.97
50310;BME280;36207;51.850;21.698;2023-10-31T09:54:21;98230.80;;;14.35;72.45
50310;BME280;36207;51.850;21.698;2023-10-31T09:56:48;98230.73;;;14.35;72.41
50310;BME280;36207;51.850;21.698;2023-10-31T09:59:14;98218.50;;;14.36;72.15
50310;BME280;36207;51.850;21.698;2023-10-31T10:01:41;98212.72;;;14.37;72.18
50310;BME280;36207;51.850;21.698;2023-10-31T10:04:07;98214.63;;;14.38;71.65
50310;BME280;36207;51.850;21.698;2023-10-31T10:06:33;98211.47;;;14.40;71.42
50310;BME280;36207;51.850;21.698;2023-10-31T10:09:00;98213.16;;;14.42;71.35
50310;BME280;36207;51.850;21.698;2023-10-31T10:11:29;98222.55;;;14.44;71.50
50310;BME280;36207;51.850;21.698;2023-10-31T10:13:57;98218.44;;;14.46;70.89
50310;BME280;36207;51.850;21.698;2023-10-31T10:16:32;98209.98;;;14.49;71.02
50310;BME280;36207;51.850;21.698;2023-10-31T10:21:58;98215.09;;;14.60;70.28
50310;BME280;36207;51.850;21.698;2023-10-31T10:24:24;98212.39;;;14.66;70.40
50310;BME280;36207;51.850;21.698;2023-10-31T10:26:51;98219.42;;;14.70;69.98
50310;BME280;36207;51.850;21.698;2023-10-31T10:29:17;98215.63;;;14.75;70.10
50310;BME280;36207;51.850;21.698;2023-10-31T10:31:44;98210.34;;;14.79;69.07
50310;BME280;36207;51.850;21.698;2023-10-31T10:34:16;98208.67;;;14.84;69.54
50310;BME280;36207;51.850;21.698;2023-10-31T10:36:46;98211.37;;;14.89;69.22
50310;BME280;36207;51.850;21.698;2023-10-31T10:39:19;98213.29;;;14.92;68.93
50310;BME280;36207;51.850;21.698;2023-10-31T10:41:50;98209.31;;;14.97;68.48
50310;BME280;36207;51.850;21.698;2023-10-31T10:44:18;98209.79;;;15.01;68.88
50310;BME280;36207;51.850;21.698;2023-10-31T10:46:46;98213.98;;;15.05;68.24
50310;BME280;36207;51.850;21.698;2023-10-31T10:49:16;98213.91;;;15.10;68.78
50310;BME280;36207;51.850;21.698;2023-10-31T10:54:40;98221.02;;;15.19;68.59
50310;BME280;36207;51.850;21.698;2023-10-31T10:57:15;98218.88;;;15.26;68.77
50310;BME280;36207;51.850;21.698;2023-10-31T10:59:48;98216.95;;;15.34;68.75
50310;BME280;36207;51.850;21.698;2023-10-31T11:02:18;98214.98;;;15.41;68.61
50310;BME280;36207;51.850;21.698;2023-10-31T11:04:44;98214.61;;;15.46;67.87
50310;BME280;36207;51.850;21.698;2023-10-31T11:07:12;98206.73;;;15.50;67.69
50310;BME280;36207;51.850;21.698;2023-10-31T11:09:39;98214.41;;;15.54;66.85
50310;BME280;36207;51.850;21.698;2023-10-31T11:12:06;98213.92;;;15.60;66.50
50310;BME280;36207;51.850;21.698;2023-10-31T11:14:32;98214.14;;;15.70;66.59
50310;BME280;36207;51.850;21.698;2023-10-31T11:17:02;98212.03;;;15.80;66.09
50310;BME280;36207;51.850;21.698;2023-10-31T11:19:32;98206.01;;;15.94;66.27
50310;BME280;36207;51.850;21.698;2023-10-31T11:22:01;98206.58;;;16.09;65.80
50310;BME280;36207;51.850;21.698;2023-10-31T11:24:36;98203.65;;;16.29;65.60
50310;BME280;36207;51.850;21.698;2023-10-31T11:27:05;98204.40;;;16.48;65.99
50310;BME280;36207;51.850;21.698;2023-10-31T11:29:32;98201.52;;;16.66;65.32
50310;BME280;36207;51.850;21.698;2023-10-31T11:31:59;98200.54;;;16.84;63.31
50310;BME280;36207;51.850;21.698;2023-10-31T11:34:29;98202.48;;;16.99;62.85
50310;BME280;36207;51.850;21.698;2023-10-31T11:37:18;98199.91;;;17.05;63.02
50310;BME280;36207;51.850;21.698;2023-10-31T11:42:50;98202.54;;;16.99;61.94
50310;BME280;36207;51.850;21.698;2023-10-31T11:45:36;98197.10;;;17.02;63.18
50310;BME280;36207;51.850;21.698;2023-10-31T11:48:08;98194.70;;;17.07;63.68
50310;BME280;36207;51.850;21.698;2023-10-31T11:50:36;98193.84;;;17.12;64.16
50310;BME280;36207;51.850;21.698;2023-10-31T11:55:41;98188.04;;;17.29;63.01
50310;BME280;36207;51.850;21.698;2023-10-31T11:58:19;98195.71;;;17.40;63.52
50310;BME280;36207;51.850;21.698;2023-10-31T12:00:47;98202.91;;;17.43;62.57
50310;BME280;36207;51.850;21.698;2023-10-31T12:03:19;98204.68;;;17.39;62.90
50310;BME280;36207;51.850;21.698;2023-10-31T12:05:58;98204.30;;;17.34;62.36
50310;BME280;36207;51.850;21.698;2023-10-31T12:08:29;98205.31;;;17.32;62.62
50310;BME280;36207;51.850;21.698;2023-10-31T12:11:18;98213.90;;;17.31;62.57
50310;BME280;36207;51.850;21.698;2023-10-31T12:14:00;98212.82;;;17.35;63.32
50310;BME280;36207;51.850;21.698;2023-10-31T12:16:28;98211.22;;;17.44;63.34
50310;BME280;36207;51.850;21.698;2023-10-31T12:18:56;98203.83;;;17.57;63.36
50310;BME280;36207;51.850;21.698;2023-10-31T12:21:43;98207.73;;;17.63;63.03
50310;BME280;36207;51.850;21.698;2023-10-31T12:24:14;98205.69;;;17.69;63.15
50310;BME280;36207;51.850;21.698;2023-10-31T12:26:42;98206.02;;;17.70;62.92
50310;BME280;36207;51.850;21.698;2023-10-31T12:29:14;98209.95;;;17.68;62.48
50310;BME280;36207;51.850;21.698;2023-10-31T12:31:52;98211.45;;;17.65;61.77
50310;BME280;36207;51.850;21.698;2023-10-31T12:34:21;98215.66;;;17.62;62.72
50310;BME280;36207;51.850;21.698;2023-10-31T12:36:51;98216.89;;;17.61;63.01
50310;BME280;36207;51.850;21.698;2023-10-31T12:39:21;98220.79;;;17.58;62.62
50310;BME280;36207;51.850;21.698;2023-10-31T12:41:47;98218.14;;;17.54;62.53
50310;BME280;36207;51.850;21.698;2023-10-31T12:44:20;98226.39;;;17.50;62.77
50310;BME280;36207;51.850;21.698;2023-10-31T12:46:48;98229.89;;;17.48;63.28
50310;BME280;36207;51.850;21.698;2023-10-31T12:49:19;98234.91;;;17.44;63.33
50310;BME280;36207;51.850;21.698;2023-10-31T12:52:02;98232.58;;;17.44;63.73
50310;BME280;36207;51.850;21.698;2023-10-31T12:54:30;98243.71;;;17.45;63.94
50310;BME280;36207;51.850;21.698;2023-10-31T12:57:06;98248.13;;;17.42;63.93
50310;BME280;36207;51.850;21.698;2023-10-31T12:59:35;98245.80;;;17.40;64.18
50310;BME280;36207;51.850;21.698;2023-10-31T13:02:02;98251.52;;;17.38;64.40